createdAt,value
2024-02-16T00:02:04.495Z,11.80
2024-02-16T00:04:33.817Z,11.80
2024-02-16T00:07:00.879Z,11.80
2024-02-16T00:09:29.414Z,11.80
2024-02-16T00:11:57.405Z,11.80
2024-02-16T00:14:26.631Z,11.80
2024-02-16T00:16:54.556Z,11.70
2024-02-16T00:19:23.354Z,11.80
2024-02-16T00:21:53.082Z,11.80
2024-02-16T00:24:21.042Z,11.70
2024-02-16T00:26:49.251Z,11.70
2024-02-16T00:29:17.364Z,11.60
2024-02-16T00:31:45.519Z,11.70
2024-02-16T00:34:13.529Z,11.70
2024-02-16T00:36:41.472Z,11.70
2024-02-16T00:39:10.751Z,11.70
2024-02-16T00:41:38.602Z,11.60
2024-02-16T00:44:06.537Z,11.60
2024-02-16T00:46:34.740Z,11.60
2024-02-16T00:49:02.881Z,11.60
2024-02-16T00:51:30.955Z,11.60
2024-02-16T00:53:58.907Z,11.60
2024-02-16T00:56:28.232Z,11.50
2024-02-16T00:58:56.107Z,11.50
2024-02-16T01:01:25.751Z,11.40
2024-02-16T01:03:54.014Z,11.50
2024-02-16T01:06:22.075Z,11.60
2024-02-16T01:08:50.140Z,11.60
2024-02-16T01:11:18.145Z,11.50
2024-02-16T01:13:48.040Z,11.60
2024-02-16T01:16:16.029Z,11.50
2024-02-16T01:18:43.981Z,11.50
2024-02-16T01:21:11.951Z,11.50
2024-02-16T01:23:39.833Z,11.50
2024-02-16T01:26:07.738Z,11.50
2024-02-16T01:28:35.678Z,11.50
2024-02-16T01:31:05.070Z,11.50
2024-02-16T01:33:35.889Z,11.50
2024-02-16T01:36:04.943Z,11.50
2024-02-16T01:38:32.857Z,11.60
2024-02-16T01:41:00.729Z,11.50
2024-02-16T01:43:28.644Z,11.50
2024-02-16T01:45:58.230Z,11.40
2024-02-16T01:48:28.028Z,11.40
2024-02-16T01:50:56.536Z,11.50
2024-02-16T01:53:25.297Z,11.40
2024-02-16T01:55:53.333Z,11.50
2024-02-16T01:58:21.312Z,11.40
2024-02-16T02:00:49.408Z,11.40
2024-02-16T02:03:19.364Z,11.40
2024-02-16T02:05:49.232Z,11.30
2024-02-16T02:08:17.296Z,11.40
2024-02-16T02:10:45.538Z,11.30
2024-02-16T02:13:13.475Z,11.20
2024-02-16T02:15:41.462Z,11.30
2024-02-16T02:18:09.812Z,11.30
2024-02-16T02:20:37.826Z,11.20
2024-02-16T02:23:07.306Z,11.20
2024-02-16T02:25:36.128Z,11.10
2024-02-16T02:28:04.419Z,11.20
2024-02-16T02:30:32.428Z,11.10
2024-02-16T02:33:00.721Z,11.20
2024-02-16T02:35:28.715Z,11.20
2024-02-16T02:37:56.611Z,11.20
2024-02-16T02:40:26.796Z,11.20
2024-02-16T02:42:54.953Z,11.20
2024-02-16T02:45:24.293Z,11.10
2024-02-16T02:47:53.309Z,11.10
2024-02-16T02:50:21.531Z,11.00
2024-02-16T02:52:49.483Z,11.00
2024-02-16T02:55:17.708Z,10.90
2024-02-16T02:57:46.921Z,10.90
2024-02-16T03:00:16.540Z,10.80
2024-02-16T03:02:44.960Z,10.90
2024-02-16T03:05:13.135Z,10.90
2024-02-16T03:07:41.153Z,10.90
2024-02-16T03:10:11.549Z,10.90
2024-02-16T03:12:39.513Z,10.80
2024-02-16T03:15:10.035Z,10.80
2024-02-16T03:17:38.013Z,10.80
2024-02-16T03:20:08.879Z,11.00
2024-02-16T03:22:36.817Z,11.00
2024-02-16T03:25:06.098Z,11.00
2024-02-16T03:27:34.198Z,11.00
2024-02-16T03:30:11.934Z,11.10
2024-02-16T03:32:40.124Z,11.10
2024-02-16T03:35:09.057Z,11.20
2024-02-16T03:37:37.068Z,11.20
2024-02-16T03:40:09.195Z,11.20
2024-02-16T03:42:37.289Z,11.20
2024-02-16T03:45:05.580Z,11.20
2024-02-16T03:47:34.948Z,11.20
2024-02-16T03:50:03.470Z,11.10
2024-02-16T03:52:32.966Z,11.00
2024-02-16T03:55:00.853Z,10.90
2024-02-16T03:57:29.081Z,10.70
2024-02-16T03:59:57.123Z,10.70
2024-02-16T04:02:25.102Z,10.60
2024-02-16T04:04:54.413Z,10.60
2024-02-16T04:07:22.397Z,10.50
2024-02-16T04:09:50.460Z,10.60
2024-02-16T04:12:18.443Z,10.70
2024-02-16T04:14:47.020Z,10.80
2024-02-16T04:17:14.965Z,10.90
2024-02-16T04:19:42.901Z,10.90
2024-02-16T04:22:12.187Z,10.90
2024-02-16T04:24:40.352Z,10.80
2024-02-16T04:27:11.463Z,10.70
2024-02-16T04:29:39.440Z,10.60
2024-02-16T04:32:07.437Z,10.50
2024-02-16T04:34:35.403Z,10.50
2024-02-16T04:37:09.142Z,10.40
2024-02-16T04:39:38.421Z,10.40
2024-02-16T04:42:06.951Z,10.40
2024-02-16T04:44:40.336Z,10.40
2024-02-16T04:47:10.024Z,10.30
2024-02-16T04:49:39.384Z,10.30
2024-02-16T04:52:09.805Z,10.30
2024-02-16T04:54:41.414Z,10.30
2024-02-16T04:57:09.661Z,10.20
2024-02-16T04:59:37.587Z,10.20
2024-02-16T05:02:07.962Z,10.20
2024-02-16T05:04:35.818Z,10.20
2024-02-16T05:07:04.023Z,10.20
2024-02-16T05:09:34.377Z,10.30
2024-02-16T05:12:04.196Z,10.50
2024-02-16T05:14:32.068Z,10.60
2024-02-16T05:17:00.361Z,10.60
2024-02-16T05:19:28.400Z,10.60
2024-02-16T05:21:56.619Z,10.50
2024-02-16T05:24:24.512Z,10.50
2024-02-16T05:26:52.951Z,10.40
2024-02-16T05:29:22.224Z,10.40
2024-02-16T05:31:53.272Z,10.50
2024-02-16T05:34:21.343Z,10.50
2024-02-16T05:36:49.503Z,10.60
2024-02-16T05:39:27.700Z,10.70
2024-02-16T05:41:55.914Z,10.60
2024-02-16T05:44:25.526Z,10.50
2024-02-16T05:46:53.424Z,10.50
2024-02-16T05:49:21.989Z,10.50
2024-02-16T05:52:18.335Z,10.50
2024-02-16T05:54:46.340Z,10.60
2024-02-16T05:57:14.655Z,10.60
2024-02-16T05:59:44.145Z,10.50
2024-02-16T06:02:12.637Z,10.50
2024-02-16T06:04:41.321Z,10.30
2024-02-16T06:07:10.221Z,10.20
2024-02-16T06:09:38.567Z,10.10
2024-02-16T06:12:08.655Z,10.10
2024-02-16T06:14:37.735Z,10.00
2024-02-16T06:17:09.203Z,9.90
2024-02-16T06:19:37.957Z,9.90
2024-02-16T06:22:06.702Z,9.80
2024-02-16T06:24:34.680Z,9.70
2024-02-16T06:27:04.280Z,9.70
2024-02-16T06:29:32.388Z,9.90
2024-02-16T06:32:03.140Z,9.80
2024-02-16T06:34:32.886Z,9.70
2024-02-16T06:37:01.712Z,9.70
2024-02-16T06:39:32.176Z,9.70
2024-02-16T06:42:01.367Z,9.70
2024-02-16T06:44:29.411Z,9.80
2024-02-16T06:46:57.375Z,9.80
2024-02-16T06:49:25.338Z,9.90
2024-02-16T06:51:55.422Z,9.90
2024-02-16T06:54:23.902Z,10.00
2024-02-16T06:56:52.458Z,10.10
2024-02-16T06:59:20.491Z,10.20
2024-02-16T07:01:48.687Z,10.30
2024-02-16T07:04:16.835Z,10.30
2024-02-16T07:06:44.840Z,10.40
2024-02-16T07:09:16.321Z,10.40
2024-02-16T07:11:49.698Z,10.40
2024-02-16T07:14:19.545Z,10.40
2024-02-16T07:16:47.500Z,10.40
2024-02-16T07:19:15.515Z,10.50
2024-02-16T07:21:45.502Z,10.70
2024-02-16T07:24:16.521Z,10.70
2024-02-16T07:26:44.455Z,10.80
2024-02-16T07:29:14.457Z,10.70
2024-02-16T07:31:42.552Z,10.70
2024-02-16T07:34:12.478Z,10.60
2024-02-16T07:36:40.475Z,10.60
2024-02-16T07:39:09.014Z,10.60
2024-02-16T07:41:38.317Z,10.60
2024-02-16T07:44:06.971Z,10.70
2024-02-16T07:46:36.437Z,10.60
2024-02-16T07:49:05.673Z,10.60
2024-02-16T07:51:33.698Z,10.60
2024-02-16T07:54:02.014Z,10.60
2024-02-16T07:56:31.956Z,10.70
2024-02-16T07:59:01.380Z,10.80
2024-02-16T08:01:29.376Z,10.90
2024-02-16T08:03:57.603Z,11.10
2024-02-16T08:06:28.314Z,11.20
2024-02-16T08:08:56.461Z,11.30
2024-02-16T08:11:25.041Z,11.30
2024-02-16T08:13:53.638Z,11.50
2024-02-16T08:16:22.937Z,11.50
2024-02-16T08:18:50.960Z,11.50
2024-02-16T08:21:19.096Z,11.50
2024-02-16T08:23:47.442Z,11.60
2024-02-16T08:26:15.760Z,11.60
2024-02-16T08:28:45.892Z,11.70
2024-02-16T08:31:18.862Z,11.70
2024-02-16T08:33:49.146Z,11.80
2024-02-16T08:36:17.461Z,11.80
2024-02-16T08:38:45.505Z,11.90
2024-02-16T08:41:13.474Z,12.00
2024-02-16T08:43:41.513Z,12.10
2024-02-16T08:46:09.948Z,12.20
2024-02-16T08:48:38.060Z,12.30
2024-02-16T08:51:07.761Z,12.40
2024-02-16T08:53:38.428Z,12.50
2024-02-16T08:56:11.439Z,12.60
2024-02-16T08:58:39.483Z,12.60
2024-02-16T09:01:07.712Z,12.60
2024-02-16T09:03:39.752Z,12.90
2024-02-16T09:06:09.582Z,13.00
2024-02-16T09:08:37.503Z,13.00
2024-02-16T09:11:06.375Z,13.10
2024-02-16T09:13:34.721Z,13.10
2024-02-16T09:16:04.312Z,13.20
2024-02-16T09:18:32.498Z,13.10
2024-02-16T09:21:00.708Z,13.10
2024-02-16T09:23:31.209Z,13.20
2024-02-16T09:26:00.561Z,13.20
2024-02-16T09:28:30.452Z,13.40
2024-02-16T09:30:58.892Z,13.50
2024-02-16T09:33:28.318Z,13.50
2024-02-16T09:35:56.619Z,13.70
2024-02-16T09:38:24.525Z,13.80
2024-02-16T09:40:53.898Z,14.00
2024-02-16T09:43:27.304Z,14.10
2024-02-16T09:45:57.126Z,14.20
2024-02-16T09:48:26.492Z,14.30
2024-02-16T09:50:56.723Z,14.40
2024-02-16T09:53:27.480Z,14.50
2024-02-16T09:55:57.645Z,14.70
2024-02-16T09:58:25.617Z,15.00
2024-02-16T10:00:56.880Z,15.20
2024-02-16T10:03:29.416Z,15.50
2024-02-16T10:06:08.363Z,15.60
2024-02-16T10:08:36.732Z,15.60
2024-02-16T10:11:06.817Z,15.60
2024-02-16T10:13:34.748Z,15.50
2024-02-16T10:16:09.772Z,15.50
2024-02-16T10:18:38.870Z,15.50
2024-02-16T10:21:08.720Z,15.40
2024-02-16T10:23:43.696Z,15.50
2024-02-16T10:26:13.672Z,15.50
2024-02-16T10:28:44.631Z,15.50
2024-02-16T10:31:12.599Z,15.60
2024-02-16T10:33:42.323Z,15.60
2024-02-16T10:36:10.825Z,15.80
2024-02-16T10:38:40.481Z,15.80
2024-02-16T10:41:10.030Z,15.90
2024-02-16T10:43:39.358Z,15.90
2024-02-16T10:46:07.532Z,16.00
2024-02-16T10:48:35.482Z,16.10
2024-02-16T10:51:04.113Z,16.30
2024-02-16T10:53:33.932Z,16.60
2024-02-16T10:56:03.294Z,16.80
2024-02-16T10:58:31.494Z,17.00
2024-02-16T11:01:09.483Z,17.10
2024-02-16T11:03:40.868Z,17.40
2024-02-16T11:06:18.508Z,17.60
2024-02-16T11:08:50.755Z,17.90
2024-02-16T11:11:25.429Z,18.20
2024-02-16T11:13:57.342Z,18.40
2024-02-16T11:16:30.919Z,18.50
2024-02-16T11:18:59.903Z,18.60
2024-02-16T11:21:27.883Z,18.60
2024-02-16T11:24:08.634Z,18.60
2024-02-16T11:26:44.434Z,18.50
2024-02-16T11:29:12.897Z,18.60
2024-02-16T11:31:42.184Z,18.70
2024-02-16T11:34:10.898Z,18.80
2024-02-16T11:36:38.905Z,18.80
2024-02-16T11:39:17.732Z,18.80
2024-02-16T11:41:46.990Z,18.60
2024-02-16T11:44:17.432Z,18.60
2024-02-16T11:46:46.767Z,18.40
2024-02-16T11:49:15.025Z,18.40
2024-02-16T11:51:43.082Z,18.30
2024-02-16T11:54:13.495Z,18.20
2024-02-16T11:56:43.736Z,18.30
2024-02-16T11:59:11.901Z,18.40
2024-02-16T12:01:52.668Z,18.60
2024-02-16T12:04:25.398Z,18.90
2024-02-16T12:06:55.204Z,19.00
2024-02-16T12:09:23.481Z,19.20
2024-02-16T12:11:51.886Z,19.20
2024-02-16T12:14:20.018Z,19.20
2024-02-16T12:16:52.576Z,19.20
2024-02-16T12:19:22.374Z,19.10
2024-02-16T12:21:51.903Z,18.90
2024-02-16T12:24:19.930Z,18.80
2024-02-16T12:26:50.257Z,18.70
2024-02-16T12:29:20.500Z,18.80
2024-02-16T12:31:50.809Z,19.00
2024-02-16T12:34:20.366Z,19.10
2024-02-16T12:36:51.277Z,19.30
2024-02-16T12:39:21.593Z,19.30
2024-02-16T12:41:50.843Z,19.40
2024-02-16T12:44:18.765Z,19.30
2024-02-16T12:46:46.712Z,19.10
2024-02-16T12:49:15.709Z,19.00
2024-02-16T12:51:45.273Z,19.00
2024-02-16T12:54:15.939Z,19.00
2024-02-16T12:56:45.920Z,18.90
2024-02-16T12:59:13.938Z,18.90
2024-02-16T13:01:42.884Z,18.80
2024-02-16T13:04:10.922Z,18.80
2024-02-16T13:06:39.320Z,18.90
2024-02-16T13:09:09.718Z,18.90
2024-02-16T13:11:37.972Z,18.70
2024-02-16T13:14:05.917Z,18.60
2024-02-16T13:16:33.847Z,18.40
2024-02-16T13:19:02.104Z,18.20
2024-02-16T13:21:30.120Z,18.00
2024-02-16T13:23:58.034Z,17.80
2024-02-16T13:26:29.926Z,17.70
2024-02-16T13:28:58.415Z,17.60
2024-02-16T13:31:26.781Z,17.50
2024-02-16T13:33:56.188Z,17.50
2024-02-16T13:36:24.410Z,17.40
2024-02-16T13:38:52.348Z,17.40
2024-02-16T13:41:20.964Z,17.30
2024-02-16T13:43:50.441Z,17.30
2024-02-16T13:46:20.620Z,17.20
2024-02-16T13:48:49.360Z,17.10
2024-02-16T13:51:17.432Z,16.90
2024-02-16T13:53:45.420Z,16.80
2024-02-16T13:56:13.266Z,16.70
2024-02-16T13:58:41.451Z,16.60
2024-02-16T14:01:11.284Z,16.50
2024-02-16T14:03:39.445Z,16.40
2024-02-16T14:06:10.963Z,16.30
2024-02-16T14:08:39.000Z,16.30
2024-02-16T14:11:06.897Z,16.20
2024-02-16T14:13:34.830Z,16.10
2024-02-16T14:16:02.815Z,16.10
2024-02-16T14:18:35.299Z,16.00
2024-02-16T14:21:05.009Z,16.00
2024-02-16T14:23:33.581Z,15.90
2024-02-16T14:26:02.366Z,15.90
2024-02-16T14:28:30.685Z,15.90
2024-02-16T14:30:58.710Z,15.90
2024-02-16T14:33:32.502Z,15.90
2024-02-16T14:36:04.290Z,15.80
2024-02-16T14:38:32.731Z,15.70
2024-02-16T14:41:04.760Z,15.70
2024-02-16T14:43:34.041Z,15.70
2024-02-16T14:46:05.115Z,15.60
2024-02-16T14:48:33.201Z,15.40
2024-02-16T14:51:01.766Z,15.40
2024-02-16T14:53:31.948Z,15.30
2024-02-16T14:55:59.821Z,15.20
2024-02-16T14:58:27.772Z,15.10
2024-02-16T15:00:57.784Z,15.00
2024-02-16T15:03:27.366Z,15.00
2024-02-16T15:05:55.438Z,14.90
2024-02-16T15:08:23.451Z,14.90
2024-02-16T15:10:53.307Z,14.80
2024-02-16T15:13:21.512Z,14.70
2024-02-16T15:15:49.532Z,14.70
2024-02-16T15:18:18.008Z,14.70
2024-02-16T15:20:50.074Z,14.70
2024-02-16T15:23:19.201Z,14.60
2024-02-16T15:25:50.285Z,14.50
2024-02-16T15:28:19.605Z,14.50
2024-02-16T15:30:48.798Z,14.50
2024-02-16T15:33:17.209Z,14.50
2024-02-16T15:35:46.008Z,14.40
2024-02-16T15:38:14.119Z,14.50
2024-02-16T15:40:42.053Z,14.50
2024-02-16T15:43:11.716Z,14.40
2024-02-16T15:45:42.214Z,14.40
2024-02-16T15:48:11.034Z,14.30
2024-02-16T15:50:40.019Z,14.30
2024-02-16T15:53:08.098Z,14.30
2024-02-16T15:55:36.303Z,14.30
2024-02-16T15:58:04.299Z,14.20
2024-02-16T16:00:32.450Z,14.10
2024-02-16T16:03:02.424Z,14.20
2024-02-16T16:05:33.711Z,14.10
2024-02-16T16:08:04.934Z,14.10
2024-02-16T16:10:33.106Z,14.10
2024-02-16T16:13:08.113Z,14.10
2024-02-16T16:15:36.530Z,14.00
2024-02-16T16:18:06.881Z,14.00
2024-02-16T16:20:34.875Z,14.00
2024-02-16T16:23:03.647Z,14.00
2024-02-16T16:25:31.762Z,14.10
2024-02-16T16:27:59.725Z,14.00
2024-02-16T16:30:27.835Z,14.00
2024-02-16T16:32:56.700Z,14.10
2024-02-16T16:35:26.327Z,14.10
2024-02-16T16:37:54.665Z,14.10
2024-02-16T16:40:22.694Z,14.10
2024-02-16T16:42:52.530Z,14.00
2024-02-16T16:45:20.513Z,13.90
2024-02-16T16:47:48.569Z,13.90
2024-02-16T16:50:20.792Z,13.90
2024-02-16T16:52:50.838Z,13.90
2024-02-16T16:55:18.809Z,13.90
2024-02-16T16:57:48.210Z,13.80
2024-02-16T17:00:19.018Z,13.80
2024-02-16T17:02:47.631Z,13.80
2024-02-16T17:05:15.564Z,13.80
2024-02-16T17:07:43.689Z,13.70
2024-02-16T17:10:14.319Z,13.70
2024-02-16T17:12:45.674Z,13.60
2024-02-16T17:15:19.390Z,13.60
2024-02-16T17:17:52.445Z,13.60
2024-02-16T17:20:25.097Z,13.60
2024-02-16T17:22:54.479Z,13.50
2024-02-16T17:25:24.865Z,13.50
2024-02-16T17:27:52.962Z,13.50
2024-02-16T17:30:22.640Z,13.50
2024-02-16T17:32:50.669Z,13.50
2024-02-16T17:35:18.908Z,13.50
2024-02-16T17:37:47.272Z,13.50
2024-02-16T17:40:15.618Z,13.50
2024-02-16T17:42:45.041Z,13.50
2024-02-16T17:45:13.081Z,13.40
2024-02-16T17:47:41.355Z,13.40
2024-02-16T17:50:10.687Z,13.30
2024-02-16T17:52:38.828Z,13.30
2024-02-16T17:55:08.672Z,13.30
2024-02-16T17:57:37.126Z,13.30
2024-02-16T18:00:08.551Z,13.20
2024-02-16T18:02:41.144Z,13.20
2024-02-16T18:05:13.531Z,13.20
2024-02-16T18:07:43.950Z,13.20
2024-02-16T18:10:12.822Z,13.20
2024-02-16T18:12:41.831Z,13.20
2024-02-16T18:15:13.662Z,13.20
2024-02-16T18:17:42.230Z,13.10
2024-02-16T18:20:13.684Z,13.10
2024-02-16T18:22:42.227Z,13.10
2024-02-16T18:25:10.940Z,13.10
2024-02-16T18:27:39.186Z,13.10
2024-02-16T18:30:08.880Z,13.10
2024-02-16T18:32:38.276Z,13.10
2024-02-16T18:35:06.853Z,13.10
2024-02-16T18:37:34.865Z,13.10
2024-02-16T18:40:05.413Z,13.00
2024-02-16T18:42:34.488Z,13.00
2024-02-16T18:45:04.085Z,13.00
2024-02-16T18:47:32.167Z,13.00
2024-02-16T18:50:01.653Z,13.00
2024-02-16T18:52:29.674Z,13.00
2024-02-16T18:54:57.553Z,12.90
2024-02-16T18:57:25.559Z,12.90
2024-02-16T18:59:53.495Z,12.90
2024-02-16T19:02:21.450Z,12.90
2024-02-16T19:04:49.509Z,12.80
2024-02-16T19:07:19.892Z,12.80
2024-02-16T19:09:52.392Z,12.80
2024-02-16T19:12:20.900Z,12.80
2024-02-16T19:14:48.837Z,12.70
2024-02-16T19:17:18.072Z,12.70
2024-02-16T19:19:46.014Z,12.70
2024-02-16T19:22:14.462Z,12.70
2024-02-16T19:24:44.802Z,12.70
2024-02-16T19:27:13.065Z,12.60
2024-02-16T19:29:41.319Z,12.60
2024-02-16T19:32:09.302Z,12.60
2024-02-16T19:34:37.492Z,12.60
2024-02-16T19:37:05.856Z,12.60
2024-02-16T19:39:33.879Z,12.60
2024-02-16T19:42:04.988Z,12.60
2024-02-16T19:44:36.495Z,12.60
2024-02-16T19:47:05.341Z,12.60
2024-02-16T19:49:33.899Z,12.60
2024-02-16T19:52:02.124Z,12.60
2024-02-16T19:54:30.282Z,12.60
2024-02-16T19:56:58.373Z,12.60
2024-02-16T19:59:27.666Z,12.60
2024-02-16T20:01:55.539Z,12.60
2024-02-16T20:04:23.465Z,12.60
2024-02-16T20:06:52.042Z,12.60
2024-02-16T20:09:20.061Z,12.60
2024-02-16T20:11:48.065Z,12.60
2024-02-16T20:14:16.024Z,12.60
2024-02-16T20:16:45.508Z,12.50
2024-02-16T20:19:13.613Z,12.50
2024-02-16T20:21:41.745Z,12.50
2024-02-16T20:24:10.080Z,12.50
2024-02-16T20:26:39.528Z,12.50
2024-02-16T20:29:08.487Z,12.50
2024-02-16T20:31:39.377Z,12.50
2024-02-16T20:34:09.684Z,12.60
2024-02-16T20:36:37.874Z,12.60
2024-02-16T20:39:05.999Z,12.60
2024-02-16T20:41:34.025Z,12.50
2024-02-16T20:44:03.524Z,12.60
2024-02-16T20:46:31.570Z,12.60
2024-02-16T20:48:59.619Z,12.50
2024-02-16T20:51:29.067Z,12.50
2024-02-16T20:53:57.002Z,12.60
2024-02-16T20:56:24.935Z,12.50
2024-02-16T20:58:52.851Z,12.40
2024-02-16T21:01:20.819Z,12.40
2024-02-16T21:03:49.308Z,12.40
2024-02-16T21:06:17.431Z,12.40
2024-02-16T21:08:47.574Z,12.30
2024-02-16T21:11:17.567Z,12.40
2024-02-16T21:13:46.605Z,12.40
2024-02-16T21:16:14.686Z,12.40
2024-02-16T21:18:42.684Z,12.40
2024-02-16T21:21:12.119Z,12.40
2024-02-16T21:23:40.083Z,12.40
2024-02-16T21:26:09.355Z,12.40
2024-02-16T21:28:37.778Z,12.40
2024-02-16T21:31:06.462Z,12.50
2024-02-16T21:33:36.742Z,12.50
2024-02-16T21:36:10.651Z,12.50
2024-02-16T21:38:38.645Z,12.50
2024-02-16T21:41:11.488Z,12.50
2024-02-16T21:43:40.762Z,12.60
2024-02-16T21:46:09.075Z,12.60
2024-02-16T21:48:43.959Z,12.70
2024-02-16T21:51:16.540Z,12.70
2024-02-16T21:53:44.765Z,12.70
2024-02-16T21:56:12.723Z,12.70
2024-02-16T21:58:42.754Z,12.80
2024-02-16T22:01:11.060Z,12.80
2024-02-16T22:03:40.549Z,12.80
2024-02-16T22:06:09.534Z,12.70
2024-02-16T22:08:37.947Z,12.70
2024-02-16T22:11:06.515Z,12.80
2024-02-16T22:13:34.986Z,12.70
2024-02-16T22:16:05.069Z,12.70
2024-02-16T22:18:33.465Z,12.70
2024-02-16T22:21:01.509Z,12.70
2024-02-16T22:23:29.447Z,12.60
2024-02-16T22:25:57.399Z,12.60
2024-02-16T22:28:25.535Z,12.60
2024-02-16T22:30:53.498Z,12.50
2024-02-16T22:33:23.526Z,12.50
2024-02-16T22:35:51.586Z,12.50
2024-02-16T22:38:19.507Z,12.50
2024-02-16T22:40:47.359Z,12.40
2024-02-16T22:43:16.283Z,12.40
2024-02-16T22:45:44.593Z,12.20
2024-02-16T22:48:15.454Z,12.10
2024-02-16T22:50:46.384Z,12.00
2024-02-16T22:53:14.365Z,11.90
2024-02-16T22:55:42.374Z,11.80
2024-02-16T22:58:10.548Z,11.80
2024-02-16T23:00:42.078Z,11.80
2024-02-16T23:03:12.319Z,11.80
2024-02-16T23:05:40.757Z,11.90
2024-02-16T23:08:10.453Z,11.90
2024-02-16T23:10:39.560Z,11.90
2024-02-16T23:13:07.793Z,11.90
2024-02-16T23:15:35.757Z,11.90
2024-02-16T23:18:04.056Z,11.90
2024-02-16T23:20:32.851Z,11.90
2024-02-16T23:23:02.998Z,11.90
2024-02-16T23:25:35.128Z,11.80
2024-02-16T23:28:03.503Z,11.80
2024-02-16T23:30:31.468Z,11.80
2024-02-16T23:33:00.442Z,11.80
2024-02-16T23:35:28.457Z,11.80
2024-02-16T23:37:56.639Z,11.80
2024-02-16T23:40:24.577Z,11.80
2024-02-16T23:42:53.852Z,11.80
2024-02-16T23:45:22.022Z,11.80
2024-02-16T23:47:51.767Z,11.80
2024-02-16T23:50:20.007Z,11.80
2024-02-16T23:52:47.943Z,11.80
2024-02-16T23:55:15.924Z,11.80
2024-02-16T23:57:43.981Z,11.80
